Nearby METAR Reports

 

KSJC - San Jose, California, USA
Distance from station: NE 9mi, 14km
Updated: Thu, 22-Feb-2018 4:53pm EST
Mostly cloudy
Mostly cloudy
 Wind from W
Wind: W 13 mph , 20 km/h, Gust: 23 mph , 37 km/h
Temperature: 54°F , 12°C
Dew Point: 36°F , 2°C
Humidity: 51%
Barometer: 30.22 inHg , 1023.4 hPa
Clouds: Mostly cloudy
Visibility: 10 miles , 16 km
Cloud details: Few Clouds 1900 ft
Partly cloudy 3500 ft
Mostly cloudy 5000 ft
2018/02/22 21:53 KSJC 222153Z 27011G20KT 10SM FEW019 SCT035 BKN050 12/02 A3022 RMK AO2 SLP232 T01220017
KNUQ - Moffett Nas/Mtn, California, USA
Distance from station: N 9mi, 14km
Updated: Thu, 22-Feb-2018 4:56pm EST
Mostly cloudy
Mostly cloudy
 Wind from WNW
Wind: WNW 16 mph , 26 km/h, Gust: 24 mph , 39 km/h
Temperature: 54°F , 12°C
Dew Point: 36°F , 2°C
Humidity: 51%
Barometer: 30.22 inHg , 1023.4 hPa
Clouds: Mostly cloudy
Visibility: 10 miles , 16 km
Cloud details: Mostly cloudy 4300 ft
Mostly cloudy 5000 ft
2018/02/22 21:56 KNUQ 222156Z 30014G21KT 10SM BKN043 BKN050 12/02 A3022 RMK AO2 SLP237 T01220017
 
KPAO - Palo Alto, California, USA
Distance from station: NNW 14mi, 23km
Updated: Thu, 22-Feb-2018 4:47pm EST
Mostly cloudy
Mostly cloudy
 Wind from WNW
Wind: WNW 17 mph , 28 km/h, Gust: 28 mph , 44 km/h
Temperature: 52°F , 11°C
Dew Point: 36°F , 2°C
Humidity: 54%
Barometer: 30.23 inHg , 1023.7 hPa
Clouds: Mostly cloudy
Visibility: 10 miles , 16 km
Cloud details: Mostly cloudy 3500 ft
2018/02/22 21:47 KPAO 222147Z 30015G24KT 10SM BKN035 11/02 A3023
KRHV - San Jose/Reid, California, USA
Distance from station: ENE 12mi, 19km
Updated: Thu, 22-Feb-2018 4:47pm EST
Partly cloudy
Partly cloudy
 Wind from NW
Wind: NW 15 mph , 24 km/h
Temperature: 52°F , 11°C
Dew Point: 37°F , 3°C
Humidity: 58%
Barometer: 30.21 inHg , 1023 hPa
Clouds: Partly cloudy
Visibility: 10 miles , 16 km
Cloud details: Few Clouds 3000 ft
Partly cloudy 4000 ft
2018/02/22 21:47 KRHV 222147Z 32013KT 10SM FEW030 SCT040 11/03 A3021
 
KOAK - Oakland, California, USA
Distance from station: NNW 31mi, 50km
Updated: Thu, 22-Feb-2018 4:53pm EST
Partly cloudy
Partly cloudy
 Wind from W
Wind: W 25 mph , 41 km/h
Temperature: 54°F , 12°C
Dew Point: 37°F , 3°C
Humidity: 54%
Barometer: 30.20 inHg , 1022.7 hPa
Clouds: Partly cloudy
Visibility: 10 miles , 16 km
Cloud details: Partly cloudy 3400 ft
Partly cloudy 6000 ft
2018/02/22 21:53 KOAK 222153Z 28022KT 10SM SCT034 SCT060 12/03 A3020 RMK AO2 PK WND 27027/2152 SLP226 T01220033
KSQL - San Carlos Airpo, California, USA
Distance from station: NW 21mi, 34km
Updated: Thu, 22-Feb-2018 4:47pm EST
Mostly cloudy
Mostly cloudy
 Wind from WNW
Wind: WNW 20 mph , 31 km/h, Gust: 29 mph , 46 km/h
Temperature: 54°F , 12°C
Dew Point: 36°F , 2°C
Humidity: 51%
Barometer: 30.22 inHg , 1023.4 hPa
Clouds: Mostly cloudy
Visibility: 10 miles , 16 km
Cloud details: Partly cloudy 3600 ft
Mostly cloudy 4300 ft
2018/02/22 21:47 KSQL 222147Z 30017G25KT 10SM SCT036 BKN043 12/02 A3022
 
KSFO - San Francisco, California, USA
Distance from station: NW 30mi, 49km
Updated: Thu, 22-Feb-2018 4:56pm EST
Mostly cloudy
Mostly cloudy
 Wind from W
Wind: W 24 mph , 39 km/h, Gust: 36 mph , 57 km/h
Temperature: 55°F , 13°C
Dew Point: 37°F , 3°C
Humidity: 51%
Barometer: 30.21 inHg , 1023 hPa
Clouds: Mostly cloudy
Visibility: 10 miles , 16 km
Cloud details: Mostly cloudy 3000 ft
2018/02/22 21:56 KSFO 222156Z 27021G31KT 10SM BKN030 13/03 A3021 RMK AO2 PK WND 29032/2106 SLP231 T01280028
KE16 - San Martin, California, USA
Distance from station: ESE 27mi, 43km
Updated: Thu, 22-Feb-2018 4:55pm EST
Partly cloudy
Partly cloudy
 Wind from NNW
Wind: NNW 14 mph , 22 km/h, Gust: 24 mph , 39 km/h
Temperature: 54°F , 12°C
Dew Point: 36°F , 2°C
Humidity: 51%
Barometer: 30.23 inHg , 1023.7 hPa
Clouds: Partly cloudy
Visibility: 10 miles , 16 km
Cloud details: Few Clouds 4700 ft
Partly cloudy 5500 ft
2018/02/22 21:55 KE16 222155Z AUTO 33012G21KT 10SM FEW047 SCT055 12/02 A3023 RMK AO2
 
KWVI - Watsonville, California, USA
Distance from station: SSE 27mi, 44km
Updated: Thu, 22-Feb-2018 4:53pm EST
Mostly cloudy
Mostly cloudy
 Wind from WSW
Wind: WSW 16 mph , 26 km/h, Gust: 28 mph , 44 km/h
Temperature: 55°F , 13°C
Dew Point: 36°F , 2°C
Humidity: 47%
Barometer: 30.23 inHg , 1023.7 hPa
Clouds: Mostly cloudy
Visibility: 10 miles , 16 km
Cloud details: Mostly cloudy 6500 ft
2018/02/22 21:53 KWVI 222153Z AUTO 25014G24KT 10SM BKN065 13/02 A3023 RMK AO2 SLP237 T01280022
KHAF - Half Moon Bay, California, USA
Distance from station: WNW 31mi, 50km
Updated: Thu, 22-Feb-2018 4:55pm EST
Mostly cloudy
Mostly cloudy
 Wind from NW
Wind: NW 17 mph , 28 km/h, Gust: 24 mph , 39 km/h
Temperature: 52°F , 11°C
Dew Point: 41°F , 5°C
Humidity: 67%
Barometer: 30.21 inHg , 1023 hPa
Clouds: Mostly cloudy
Visibility: 8 miles , 13 km
Cloud details: Few Clouds 2800 ft
Partly cloudy 3800 ft
Mostly cloudy 7000 ft
2018/02/22 21:55 KHAF 222155Z AUTO 31015G21KT 8SM FEW028 SCT038 BKN070 11/05 A3021 RMK AO2
 
KHWD - Hayward, California, USA
Distance from station: N 28mi, 44km
Updated: Thu, 22-Feb-2018 4:54pm EST
Partly cloudy
Partly cloudy
 Wind from W
Wind: W 21 mph , 33 km/h, Gust: 26 mph , 43 km/h
Temperature: 55°F , 13°C
Dew Point: 36°F , 2°C
Humidity: 47%
Barometer: 30.20 inHg , 1022.7 hPa
Clouds: Partly cloudy
Visibility: 10 miles , 16 km
Cloud details: Partly cloudy 3400 ft
2018/02/22 21:54 KHWD 222154Z 28018G23KT 10SM SCT034 13/02 A3020 RMK AO2 SLP237 T01280022
KLVK - Livermore, California, USA
Distance from station: NNE 31mi, 51km
Updated: Thu, 22-Feb-2018 4:53pm EST
Light rain, Mostly cloudy
Light rain, Mostly cloudy
 Wind from SW
Wind: SW 12 mph , 19 km/h
Temperature: 50°F , 10°C
Wind Chill: 45°F , 7°C
Dew Point: 41°F , 5°C
Humidity: 71%
Barometer: 30.18 inHg , 1022 hPa
Summary: Light rain
Clouds: Mostly cloudy
Visibility: 10 miles , 16 km
Cloud details: Mostly cloudy 3300 ft
Mostly cloudy 4600 ft
2018/02/22 21:53 KLVK 222153Z 23010KT 10SM -RA BKN033 BKN046 10/05 A3018 RMK AO2 RAB12E25B42 SLP219 P0000 T01000050